Ride Results

Spring Mountain Challenge (26-06-2011)
Ride distance: 80.0 km

Outcomes - Spring Mountain Challenge (26-06-2011)
Division No. of Entries Retired / DNE Completed Withdrawn Ineligible V/O Percentage Completed
HW 10 - 8 - - 2 80.00%
MW 24 - 20 2 - 2 83.33%
LW 11 - 10 - - 1 90.91%
JN 11 - 9 1 - 1 81.82%
Totals 56 - 47 3 - 6 83.93%
Results - Spring Mountain Challenge (26-06-2011)
No. Rider Horse Place Time Leg Speeds Total
Km/Hr
H/R bpm
Heavyweight
52 Niels Lochtenberg Matta Mia Arad 1 (BC) 6:22:00 13.3, 11.7 12.57 35, 49, 54 (Avg:51)
40 Greg Lyon Chingford Just Dreaming 2 6:35:00 13.2, 10.9 12.15 29, 48, 49 (Avg:48)
31 Michael Shaw Midu Nemisis 3 6:51:00 12.1, 11.1 11.68 41, 46, 52 (Avg:49)
7 Jan Rohweder Charlie Chaplin 4 7:00:00 13.3, 9.6 11.43 40, 45, 44 (Avg:44)
25 Maurice Gray Jezabella Princess Athena 5 7:09:00 12.3, 9.9 11.19 58, 49, 50 (Avg:49)
46 Paul Lengronne Ra Silver Dancer 5 7:09:00 11.3, 10.9 11.19 33, 45, 46 (Avg:45)
2 Dan Winkel Shardell Azeem 7 7:19:00 11.9, 9.8 10.93 32, 42, 50 (Avg:46)
33 John Dugan Erin Park GBH 8 8:04:00 11.1, 8.7 9.92 33, 42, 48 (Avg:45)
57 Jagaran Hale Drinktilyadrop Metabolics moderate L2 0:00:00 13.8, 10.4 - 37, 50, 71 (Avg:60)
29 Peter McDonald Wollumbin Farah Metabolics moderate L2 0:00:00 15.9, 9.5 - 33, 45, 54 (Avg:49)
Middleweight
5 Simone Krahnen Ardai 1 (BC) 4:33:00 17.3, 17.9 17.58 37, 45, 50 (Avg:47)
24 Stephen Gray Kasbah Kid 2 5:07:00 17.4, 13.8 15.64 39, 45, 60 (Avg:52)
49 Sam Marquis Marja My Girl 2 5:07:00 17.4, 13.8 15.64 34, 41, 52 (Avg:46)
42 Gregory Murdoch Zastava Park Saruman 4 6:35:00 13.2, 10.9 12.15 30, 45, 49 (Avg:47)
48 Donna Pearce Windhaven Hussein 5 6:49:00 12.7, 10.6 11.74 33, 42, 48 (Avg:45)
54 Ken Moir Rio Yasnah 6 6:51:00 13.1, 10.2 11.68 33, 40, 46 (Avg:43)
53 Caroline Fitzgerald Lanamere Nightmusic 7 7:00:00 13.3, 9.6 11.43 38, 47, 47 (Avg:47)
3 Fiona Fenech Smokey 8 7:04:00 12.1, 10.4 11.32 34, 48, 47 (Avg:47)
47 Marion Lengronne Kalkadoon Vienna 9 7:09:00 11.3, 10.9 11.19 33, 47, 46 (Avg:46)
12 Karen Lee Shatahnia 10 7:47:00 12.0, 8.6 10.28 31, 38, 54 (Avg:46)
21 Patricia Coonan Chippington 11 7:48:00 10.1, 10.3 10.26 34, 46, 50 (Avg:48)
22 Liz Kirk Dunwingeri Aasalah 11 7:48:00 10.1, 10.3 10.26 37, 37, 44 (Avg:40)
20 Lorraine Ternouth Drumlin Mystic Moon 11 7:48:00 10.1, 10.3 10.26 33, 38, 46 (Avg:42)
56 Adam Dolman Inshallah Maximus 14 7:50:00 10.1, 10.2 10.21 50, 42, 45 (Avg:43)
43 Natalie Fiocco River Oak Moccona 15 8:04:00 11.1, 8.6 9.92 36, 52, 59 (Avg:55)
26 Kellie Hart Noname 16 8:10:00 10.2, 9.2 9.80 41, 42, 53 (Avg:47)
28 Jackie Swan Shantele 16 8:10:00 10.2, 9.2 9.80 40, 40, 49 (Avg:44)
59 Adrian Brickley Shinto 18 8:13:00 9.8, 9.5 9.74 36, 50, 46 (Avg:48)
39 Pierre DeWit Charlotte te 18 8:13:00 9.8, 9.5 9.74 40, 42, 51 (Avg:46)
38 Bridget Nottle Dream Dancer te 18 8:13:00 9.8, 9.5 9.74 44, 45, 48 (Avg:46)
51 Tony Standfield Stanpark Rupert Lame L2 0:00:00 14.7, 13.2 - 34, 51, 60 (Avg:55)
32 Gerard Bou Aloha Contiki Widthdrawn L1 0:00:00 - - 41, 48 (Avg:48)
41 Katie Canning Rose Gum Saliek Widthdrawn L1 0:00:00 - - 34, 45 (Avg:45)
14 Peter Holmes Alamo Hunter's Moon Lame L1 0:00:00 17.7 - 31, 50 (Avg:50)
Lightweight
6 Erin Krahnen La-Battist Shadow Fax 1 (BC) 4:33:00 17.3, 17.9 17.58 36, 41, 45 (Avg:43)
1 Karen Winkel Xanadu Barabbous 2 5:35:00 17.4, 11.6 14.33 39, 53, 52 (Avg:52)
30 Sally Genninges Centreline Envy 3 5:42:00 14.7, 13.2 14.04 39, 55, 60 (Avg:57)
13 Jess Capek Jazz Rah Tamin 4 5:47:00 13.8, 13.8 13.83 38, 55, 46 (Avg:50)
45 Jocelyn Barnes Trinity 5 6:25:00 13.1, 11.7 12.47 34, 44, 47 (Avg:45)
11 Di Kupsch Nangana Rivah Queen 6 7:47:00 12.0, 8.6 10.28 25, 34, 36 (Avg:35)
55 Sasha Laws-King Heathfield's Roxy 7 7:50:00 10.1, 10.2 10.21 35, 38, 39 (Avg:38)
23 Natashja Burton Taj Miranda 8 7:59:00 10.8, 9.1 10.02 40, 43, 45 (Avg:44)
27 Susan Kelman Jayhal Moonlight 9 8:04:00 11.3, 8.5 9.92 34, 35, 46 (Avg:40)
8 Angela Hawks White Dove te 10 8:05:00 9.8, 9.9 9.90 31, 42, 47 (Avg:44)
50 Chloe Lyons Stanpark Meg Lame L2 0:00:00 12.1, 10.4 - 37, 43, 57 (Avg:50)
Junior
4 Colleen Krahnen Kalkadoon Viva 1 5:29:00 17.3, 12.1 14.59 29, 40, 46 (Avg:43)
15 Natasha Willemse Cheraz Silver Pocket 2 (BC) 5:30:00 14.1, 15.1 14.55 33, 46, 43 (Avg:44)
37 Kasey Anderson Reece 3 6:51:00 11.6, 11.6 11.68 36, 48, 56 (Avg:52)
36 David Anderson Jnr Kalkadoon Ricochet 3 6:51:00 11.6, 11.6 11.68 34, 40, 49 (Avg:44)
10 Samantha Brooker Hirstglen Zeus 5 7:04:00 12.1, 10.4 11.32 34, 39, 44 (Avg:41)
18 Steph Tulk Woomera Thor 6 7:16:00 13.3, 8.9 11.01 34, 44, 45 (Avg:44)
16 Matilda Hose Liberator 7 7:52:00 9.8, 10.5 10.17 36, 45, 58 (Avg:51)
35 Kate McFarlane Balaam Park Countess El Shahwan 8 7:59:00 11.3, 8.6 10.02 34, 42, 47 (Avg:44)
9 Tayla Hadzi Ra-Anji Diva 9 8:05:00 9.8, 9.9 9.90 40, 45, 45 (Avg:45)
58 Hildegard Tack Melcot Bella Widthdrawn L2 0:00:00 - - 29, 38, 40 (Avg:39)
19 Jess Fuhlbohm Shardell Comanche Lame L1 0:00:00 10.0 - 37, 45 (Avg:45)